Time;durP1;ratioP1;P1;durP2;ratioP2;P2;SDS_P1;SDS_P2;PMS_P1;PMS_P2;Temp;Humidity;BMP_temperature;BMP_pressure;BME280_temperature;BME280_humidity;BME280_pressure;Samples;Min_cycle;Max_cycle;Signal;HPM_P1;HPM_P2
2021/07/17 00:01:39;;;;;;;27.23;22.07;;;17.50;95.30;;;;;;5122655;28;20589;-78
2021/07/17 00:04:06;;;;;;;27.50;21.80;;;17.50;95.50;;;;;;5131552;28;20446;-79
2021/07/17 00:06:34;;;;;;;27.13;22.00;;;17.50;95.60;;;;;;5125606;28;21045;-79
2021/07/17 00:09:01;;;;;;;29.30;21.77;;;17.50;95.70;;;;;;5121853;28;20455;-78
2021/07/17 00:11:29;;;;;;;31.80;22.37;;;17.50;95.80;;;;;;5110495;28;20529;-78
2021/07/17 00:13:56;;;;;;;34.50;22.90;;;17.50;96.10;;;;;;5100732;28;20527;-79
2021/07/17 00:16:26;;;;;;;32.93;22.50;;;17.60;96.00;;;;;;5106566;28;20455;-78
2021/07/17 00:18:54;;;;;;;30.13;20.63;;;17.60;95.60;;;;;;5105000;28;20457;-78
2021/07/17 00:21:21;;;;;;;31.80;22.03;;;17.70;95.20;;;;;;5112425;28;21019;-78
2021/07/17 00:23:48;;;;;;;29.87;20.83;;;17.70;95.20;;;;;;5117253;28;20467;-78
2021/07/17 00:26:15;;;;;;;26.00;20.60;;;17.70;94.80;;;;;;5114094;28;20462;-79
2021/07/17 00:28:43;;;;;;;27.70;20.70;;;17.60;94.40;;;;;;5130105;28;20461;-78
2021/07/17 00:31:10;;;;;;;29.50;21.40;;;17.60;95.00;;;;;;5130089;28;20479;-78
2021/07/17 00:33:38;;;;;;;32.27;22.60;;;17.50;95.20;;;;;;5129874;28;20447;-78
2021/07/17 00:36:05;;;;;;;28.23;21.17;;;17.50;95.60;;;;;;5128205;28;20465;-79
2021/07/17 00:38:33;;;;;;;30.20;21.67;;;17.50;95.80;;;;;;5129027;28;20471;-78
2021/07/17 00:41:00;;;;;;;29.00;20.50;;;17.50;96.20;;;;;;5130299;28;20482;-79
2021/07/17 00:43:27;;;;;;;28.90;21.57;;;17.40;95.90;;;;;;5117140;28;20458;-78
2021/07/17 00:45:56;;;;;;;28.70;22.07;;;17.40;96.20;;;;;;5113654;28;20877;-77
2021/07/17 00:48:23;;;;;;;28.47;21.67;;;17.40;96.20;;;;;;5118315;28;20444;-78
2021/07/17 00:50:50;;;;;;;26.10;20.07;;;17.40;96.50;;;;;;5118099;28;20579;-78
2021/07/17 00:53:17;;;;;;;28.23;20.10;;;17.40;96.60;;;;;;5117955;28;20440;-78
2021/07/17 00:55:48;;;;;;;33.70;21.73;;;17.40;96.60;;;;;;5118109;28;20435;-77
2021/07/17 00:58:17;;;;;;;27.63;21.63;;;17.40;96.90;;;;;;5119133;28;20429;-78
2021/07/17 01:00:44;;;;;;;29.37;20.80;;;17.40;96.90;;;;;;5113989;28;20451;-78
2021/07/17 01:03:14;;;;;;;25.20;20.33;;;17.40;96.70;;;;;;5114963;28;20468;-78
2021/07/17 01:05:41;;;;;;;30.83;22.00;;;17.30;97.10;;;;;;5121404;28;20515;-78
2021/07/17 01:08:07;;;;;;;34.90;23.20;;;17.30;97.50;;;;;;5100519;28;20455;-78
2021/07/17 01:10:34;;;;;;;32.17;22.80;;;17.30;97.90;;;;;;5107872;28;20487;-78
2021/07/17 01:13:02;;;;;;;26.23;20.87;;;17.30;98.10;;;;;;5104489;28;20531;-78
2021/07/17 01:15:29;;;;;;;33.67;22.03;;;17.30;97.90;;;;;;5104018;28;20446;-77
2021/07/17 01:17:56;;;;;;;29.60;22.37;;;17.30;97.90;;;;;;5108831;28;20994;-79
2021/07/17 01:20:25;;;;;;;31.53;22.97;;;17.30;97.60;;;;;;5103469;28;20509;-79
2021/07/17 01:22:54;;;;;;;28.50;22.17;;;17.30;97.50;;;;;;5097905;28;20506;-78
2021/07/17 01:25:23;;;;;;;29.40;22.13;;;17.30;97.50;;;;;;5096526;28;20948;-78
2021/07/17 01:27:50;;;;;;;28.23;20.13;;;17.20;97.80;;;;;;5096548;28;20539;-80
2021/07/17 01:30:21;;;;;;;27.93;21.27;;;17.30;97.90;;;;;;5104073;28;20480;-78
2021/07/17 01:32:48;;;;;;;30.70;22.47;;;17.30;98.50;;;;;;5114975;28;20506;-78
2021/07/17 01:35:15;;;;;;;29.70;22.60;;;17.30;97.90;;;;;;5108869;28;20490;-78
2021/07/17 01:37:42;;;;;;;29.03;21.80;;;17.20;98.30;;;;;;5096029;28;20480;-78
2021/07/17 01:40:18;;;;;;;25.70;21.60;;;17.20;98.60;;;;;;5100484;28;20454;-79
2021/07/17 01:42:46;;;;;;;30.23;22.30;;;17.30;98.90;;;;;;5110470;28;20469;-78
2021/07/17 01:45:22;;;;;;;30.73;22.10;;;17.20;98.90;;;;;;5099608;28;20455;-78
2021/07/17 01:47:50;;;;;;;28.00;21.30;;;17.20;99.10;;;;;;5136184;28;20431;-79
2021/07/17 01:50:17;;;;;;;30.50;22.53;;;17.30;99.40;;;;;;5134788;28;20451;-78
2021/07/17 01:52:44;;;;;;;27.63;22.47;;;17.30;99.00;;;;;;5115097;28;20481;-79
2021/07/17 01:55:12;;;;;;;28.20;21.07;;;17.30;99.10;;;;;;5094344;28;20495;-78
2021/07/17 01:57:40;;;;;;;27.90;21.33;;;17.40;99.30;;;;;;5093600;28;20998;-78
2021/07/17 02:00:08;;;;;;;26.97;21.67;;;17.40;99.20;;;;;;5093456;28;20486;-78
2021/07/17 02:02:35;;;;;;;30.50;21.40;;;17.40;99.10;;;;;;5093116;28;20533;-79
2021/07/17 02:05:04;;;;;;;32.23;22.70;;;17.40;99.10;;;;;;5108876;28;20949;-78
2021/07/17 02:07:31;;;;;;;28.40;23.10;;;17.30;98.80;;;;;;5113869;28;20809;-78
2021/07/17 02:09:58;;;;;;;30.87;22.57;;;17.30;99.40;;;;;;5098923;28;20486;-78
2021/07/17 02:12:26;;;;;;;29.73;21.73;;;17.20;99.50;;;;;;5093559;28;20574;-78
2021/07/17 02:14:53;;;;;;;30.07;22.67;;;17.20;99.70;;;;;;5105814;28;20538;-78
2021/07/17 02:17:20;;;;;;;25.87;21.27;;;17.20;99.70;;;;;;5113359;28;20536;-78
2021/07/17 02:19:47;;;;;;;28.67;22.57;;;17.20;99.70;;;;;;5113548;28;20549;-78
2021/07/17 02:22:14;;;;;;;27.00;21.73;;;17.20;99.70;;;;;;5113442;28;20502;-78
2021/07/17 02:24:41;;;;;;;31.23;21.77;;;17.20;99.70;;;;;;5112610;28;20537;-78
2021/07/17 02:27:08;;;;;;;31.67;22.90;;;17.20;99.90;;;;;;5115989;28;20450;-79
2021/07/17 02:29:36;;;;;;;31.60;22.50;;;17.20;99.90;;;;;;5108123;28;20558;-79
2021/07/17 02:32:04;;;;;;;32.60;23.30;;;17.10;99.70;;;;;;5096998;28;20567;-79
2021/07/17 02:34:31;;;;;;;31.00;22.77;;;17.10;99.90;;;;;;5100650;28;20483;-79
2021/07/17 02:36:58;;;;;;;29.93;23.10;;;17.20;99.90;;;;;;5096416;28;20490;-79
2021/07/17 02:39:24;;;;;;;29.97;21.60;;;17.20;99.90;;;;;;5102326;28;20491;-79
2021/07/17 02:41:51;;;;;;;28.73;22.37;;;17.20;99.90;;;;;;5120760;28;20470;-78
2021/07/17 02:44:18;;;;;;;33.63;23.50;;;17.30;99.90;;;;;;5128403;28;20470;-78
2021/07/17 02:46:46;;;;;;;29.67;22.30;;;17.30;99.70;;;;;;5108768;28;20807;-78
2021/07/17 02:49:15;;;;;;;26.73;23.17;;;17.40;99.00;;;;;;5115282;28;20481;-78
2021/07/17 02:51:42;;;;;;;27.67;21.20;;;17.40;98.00;;;;;;5138315;28;20512;-78
2021/07/17 02:54:10;;;;;;;30.47;23.73;;;17.50;98.00;;;;;;5135606;28;20430;-78
2021/07/17 02:56:38;;;;;;;35.20;21.90;;;17.60;97.80;;;;;;5098554;28;20958;-78
2021/07/17 02:59:04;;;;;;;29.80;22.17;;;17.60;97.00;;;;;;5100487;28;20814;-78
2021/07/17 03:01:31;;;;;;;29.30;22.90;;;17.60;96.80;;;;;;5119195;28;20501;-77
2021/07/17 03:04:00;;;;;;;26.13;22.37;;;17.50;96.60;;;;;;5134501;28;20419;-79
2021/07/17 03:06:26;;;;;;;27.80;21.57;;;17.50;96.90;;;;;;5109145;28;20471;-77
2021/07/17 03:08:53;;;;;;;29.17;23.70;;;17.50;96.90;;;;;;5119638;28;20454;-79
2021/07/17 03:11:20;;;;;;;31.83;22.00;;;17.50;96.90;;;;;;5118554;28;20483;-78
2021/07/17 03:13:47;;;;;;;33.10;21.90;;;17.50;97.20;;;;;;5096372;28;20483;-78
2021/07/17 03:16:15;;;;;;;32.00;23.07;;;17.50;96.80;;;;;;5095916;28;20530;-77
2021/07/17 03:18:42;;;;;;;31.70;22.63;;;17.50;96.90;;;;;;5098774;28;20455;-78
2021/07/17 03:21:10;;;;;;;27.07;21.80;;;17.60;96.90;;;;;;5109717;28;20474;-78
2021/07/17 03:23:38;;;;;;;26.97;21.57;;;17.60;96.70;;;;;;5104170;28;20532;-78
2021/07/17 03:26:05;;;;;;;30.33;23.03;;;17.60;96.40;;;;;;5096023;28;20530;-78
2021/07/17 03:28:31;;;;;;;24.67;21.60;;;17.60;96.60;;;;;;5097074;28;20796;-78
2021/07/17 03:30:58;;;;;;;33.27;23.30;;;17.60;96.40;;;;;;5114983;28;20431;-78
2021/07/17 03:33:25;;;;;;;26.97;21.77;;;17.60;96.10;;;;;;5117615;28;20414;-79
2021/07/17 03:35:52;;;;;;;30.87;22.40;;;17.60;96.20;;;;;;5116843;28;20426;-78
2021/07/17 03:38:20;;;;;;;31.03;23.07;;;17.70;95.80;;;;;;5103447;28;20474;-78
2021/07/17 03:40:47;;;;;;;29.40;22.20;;;17.70;95.40;;;;;;5095899;28;20440;-78
2021/07/17 03:43:14;;;;;;;30.93;22.50;;;17.70;95.40;;;;;;5095246;28;20879;-78
2021/07/17 03:45:41;;;;;;;31.93;21.17;;;17.70;94.80;;;;;;5095463;28;20871;-77
2021/07/17 03:48:08;;;;;;;29.93;21.97;;;17.70;94.50;;;;;;5095666;28;20854;-77
2021/07/17 03:50:35;;;;;;;27.83;21.73;;;17.70;94.50;;;;;;5095370;28;20866;-79
2021/07/17 03:53:02;;;;;;;28.77;21.83;;;17.70;94.50;;;;;;5094882;28;20935;-79
2021/07/17 03:55:31;;;;;;;27.30;21.13;;;17.70;94.50;;;;;;5095589;28;20479;-78
2021/07/17 03:57:58;;;;;;;30.17;21.90;;;17.70;94.80;;;;;;5095012;28;20525;-77
2021/07/17 04:00:25;;;;;;;36.87;23.00;;;17.70;95.10;;;;;;5095349;28;20479;-78
2021/07/17 04:02:52;;;;;;;29.07;21.73;;;17.70;95.30;;;;;;5095196;28;20529;-78
2021/07/17 04:05:20;;;;;;;31.33;22.57;;;17.70;95.30;;;;;;5095858;28;20459;-76
2021/07/17 04:07:47;;;;;;;27.57;23.63;;;17.60;95.40;;;;;;5097502;28;20974;-77
2021/07/17 04:10:14;;;;;;;34.20;22.50;;;17.60;95.80;;;;;;5112333;28;20456;-78
2021/07/17 04:12:42;;;;;;;31.47;22.37;;;17.60;96.00;;;;;;5103111;28;20479;-78
2021/07/17 04:15:10;;;;;;;33.27;23.67;;;17.60;96.10;;;;;;5105856;28;20494;-79
2021/07/17 04:17:37;;;;;;;32.23;23.30;;;17.60;96.20;;;;;;5114157;28;20503;-79
2021/07/17 04:20:05;;;;;;;30.10;22.83;;;17.60;96.20;;;;;;5101944;28;20448;-78
2021/07/17 04:22:32;;;;;;;36.17;22.50;;;17.60;96.10;;;;;;5096394;28;20507;-79
2021/07/17 04:24:59;;;;;;;28.87;22.43;;;17.70;96.10;;;;;;5098000;28;20448;-79
2021/07/17 04:27:26;;;;;;;34.40;22.90;;;17.70;95.10;;;;;;5098644;28;20928;-79
2021/07/17 04:29:55;;;;;;;30.70;23.13;;;17.70;94.70;;;;;;5095781;28;20460;-78
2021/07/17 04:32:21;;;;;;;32.03;23.23;;;17.80;94.50;;;;;;5094248;28;20516;-79
2021/07/17 04:34:48;;;;;;;34.97;23.43;;;17.80;94.50;;;;;;5095059;28;20495;-79
2021/07/17 04:37:16;;;;;;;31.10;22.50;;;17.80;94.70;;;;;;5097119;28;20853;-79
2021/07/17 04:39:43;;;;;;;27.30;22.57;;;17.80;94.70;;;;;;5099319;28;20427;-79
2021/07/17 04:42:10;;;;;;;32.00;21.80;;;17.70;94.90;;;;;;5099460;28;20553;-78
2021/07/17 04:44:37;;;;;;;27.90;22.23;;;17.80;95.20;;;;;;5097492;28;20452;-79
2021/07/17 04:47:05;;;;;;;31.13;22.83;;;17.90;94.60;;;;;;5096525;28;20512;-79
2021/07/17 04:49:32;;;;;;;27.23;21.53;;;18.00;94.00;;;;;;5096243;28;20936;-79
2021/07/17 04:51:59;;;;;;;32.57;23.07;;;18.00;93.00;;;;;;5098229;28;20463;-80
2021/07/17 04:54:27;;;;;;;31.70;23.40;;;18.10;93.40;;;;;;5097817;28;20452;-80
2021/07/17 04:56:54;;;;;;;34.73;23.37;;;18.10;92.80;;;;;;5097103;28;20453;-80
2021/07/17 04:59:21;;;;;;;27.47;22.23;;;18.00;92.90;;;;;;5097795;28;20452;-79
2021/07/17 05:01:48;;;;;;;29.07;22.90;;;17.90;93.90;;;;;;5098290;28;20483;-79
2021/07/17 05:04:16;;;;;;;31.60;22.23;;;18.00;93.60;;;;;;5101528;28;20452;-79
2021/07/17 05:06:43;;;;;;;28.23;21.87;;;18.10;93.20;;;;;;5113120;28;20463;-80
2021/07/17 05:09:10;;;;;;;27.60;21.93;;;18.10;92.70;;;;;;5104995;28;20491;-80
2021/07/17 05:11:37;;;;;;;32.03;23.00;;;18.20;92.80;;;;;;5100068;28;20492;-79
2021/07/17 05:14:04;;;;;;;32.17;21.53;;;18.20;92.60;;;;;;5107425;28;20469;-79
2021/07/17 05:16:31;;;;;;;33.20;22.77;;;18.30;92.40;;;;;;5117330;28;20419;-80
2021/07/17 05:18:57;;;;;;;32.87;23.77;;;18.40;91.50;;;;;;5114811;28;20456;-78
2021/07/17 05:21:26;;;;;;;26.83;21.47;;;18.40;91.00;;;;;;5099298;28;20512;-79
2021/07/17 05:23:53;;;;;;;33.80;22.43;;;18.40;91.00;;;;;;5107858;28;20447;-80
2021/07/17 05:26:20;;;;;;;32.23;22.00;;;18.40;91.00;;;;;;5112234;28;20456;-80
2021/07/17 05:28:47;;;;;;;26.63;21.50;;;18.40;91.00;;;;;;5109920;28;20437;-79
2021/07/17 05:31:18;;;;;;;31.87;22.50;;;18.50;91.10;;;;;;5113389;28;20488;-79
2021/07/17 05:33:45;;;;;;;26.83;22.07;;;18.40;91.10;;;;;;5098123;28;20563;-77
2021/07/17 05:36:12;;;;;;;30.90;23.43;;;18.30;91.60;;;;;;5095243;28;21007;-78
2021/07/17 05:38:40;;;;;;;26.63;21.00;;;18.30;92.20;;;;;;5094892;28;20449;-77
2021/07/17 05:41:07;;;;;;;28.03;21.47;;;18.40;91.90;;;;;;5095537;28;20507;-78
2021/07/17 05:43:34;;;;;;;35.10;22.70;;;18.50;91.10;;;;;;5095590;28;20492;-77
2021/07/17 05:46:01;;;;;;;24.57;20.93;;;18.60;90.60;;;;;;5096312;28;20452;-78
2021/07/17 05:48:28;;;;;;;29.40;21.30;;;18.70;90.30;;;;;;5096183;28;20534;-79
2021/07/17 05:50:55;;;;;;;34.47;22.20;;;18.70;90.30;;;;;;5095452;28;20470;-78
2021/07/17 05:53:22;;;;;;;24.33;21.77;;;18.80;89.60;;;;;;5101291;28;20556;-78
2021/07/17 05:55:50;;;;;;;32.03;22.10;;;18.80;89.70;;;;;;5117104;28;20452;-78
2021/07/17 05:58:17;;;;;;;24.67;21.57;;;18.90;89.30;;;;;;5111889;28;20436;-77
2021/07/17 06:00:45;;;;;;;27.13;21.63;;;18.80;90.10;;;;;;5113611;28;20481;-79
2021/07/17 06:03:12;;;;;;;26.23;21.37;;;18.90;89.10;;;;;;5096339;22;20508;-78
2021/07/17 06:05:39;;;;;;;27.17;21.70;;;18.90;88.80;;;;;;5063225;28;20480;-82
2021/07/17 06:08:06;;;;;;;21.43;19.13;;;19.10;87.40;;;;;;5060139;28;21010;-79
2021/07/17 06:10:33;;;;;;;22.03;18.77;;;19.20;86.40;;;;;;5066493;28;20437;-80
2021/07/17 06:13:01;;;;;;;26.47;19.70;;;19.30;85.00;;;;;;5071157;28;20453;-81
2021/07/17 06:15:28;;;;;;;26.47;19.50;;;19.30;85.40;;;;;;5046432;28;20448;-81
2021/07/17 06:17:55;;;;;;;27.87;20.50;;;19.40;84.90;;;;;;5056171;28;20450;-79
2021/07/17 06:20:23;;;;;;;26.93;18.63;;;19.50;84.40;;;;;;5056573;28;20524;-78
2021/07/17 06:22:50;;;;;;;34.60;20.57;;;19.60;82.40;;;;;;5051709;28;20508;-81
2021/07/17 06:25:17;;;;;;;25.10;19.40;;;19.70;82.10;;;;;;5041550;28;20511;-79
2021/07/17 06:27:44;;;;;;;21.50;18.93;;;19.70;81.70;;;;;;5040570;28;20555;-80
2021/07/17 06:30:13;;;;;;;24.80;18.90;;;19.70;82.60;;;;;;5059528;28;20499;-81
2021/07/17 06:32:40;;;;;;;26.67;20.67;;;19.80;81.90;;;;;;5061408;28;20570;-79
2021/07/17 06:35:08;;;;;;;27.23;19.07;;;19.70;82.10;;;;;;5058969;28;20885;-79
2021/07/17 06:37:40;;;;;;;25.43;17.90;;;19.90;81.70;;;;;;5060233;28;20484;-80
2021/07/17 06:40:09;;;;;;;21.37;17.57;;;20.20;78.90;;;;;;5050068;28;20457;-79
2021/07/17 06:42:41;;;;;;;19.73;17.63;;;20.30;77.30;;;;;;5070022;28;20530;-78
2021/07/17 06:45:10;;;;;;;22.27;18.20;;;20.40;77.20;;;;;;5066573;28;20467;-78
2021/07/17 06:47:38;;;;;;;19.10;17.07;;;20.60;75.70;;;;;;5050956;28;20462;-80
2021/07/17 06:50:06;;;;;;;21.60;16.33;;;20.70;74.40;;;;;;5050351;28;20438;-79
2021/07/17 06:52:34;;;;;;;21.30;15.80;;;20.70;74.60;;;;;;5073681;28;20485;-78
2021/07/17 06:55:01;;;;;;;24.33;18.67;;;20.70;74.70;;;;;;5078944;28;20439;-78
2021/07/17 06:57:28;;;;;;;26.10;17.93;;;20.50;75.30;;;;;;5079148;28;20463;-78
2021/07/17 06:59:55;;;;;;;28.73;18.27;;;20.40;76.30;;;;;;5080020;28;20494;-81
2021/07/17 07:02:22;;;;;;;20.53;18.33;;;20.30;77.00;;;;;;5060475;28;20485;-80
2021/07/17 07:04:50;;;;;;;21.80;18.00;;;20.20;78.50;;;;;;5045760;28;20457;-81
2021/07/17 07:07:17;;;;;;;22.17;18.87;;;20.10;78.60;;;;;;5046943;28;20513;-82
2021/07/17 07:09:44;;;;;;;22.07;17.70;;;19.80;80.80;;;;;;5052654;28;20435;-81
2021/07/17 07:12:11;;;;;;;21.33;18.40;;;19.70;83.30;;;;;;5065580;28;20517;-82
2021/07/17 07:14:38;;;;;;;24.43;19.03;;;19.50;85.00;;;;;;5056736;28;20607;-81
2021/07/17 07:17:05;;;;;;;20.37;18.27;;;19.50;85.00;;;;;;5056352;28;20448;-80
2021/07/17 07:19:32;;;;;;;22.33;18.70;;;19.40;86.30;;;;;;5059092;28;20468;-81
2021/07/17 07:22:01;;;;;;;23.37;19.20;;;19.40;87.60;;;;;;5058650;28;20468;-81
2021/07/17 07:24:28;;;;;;;26.07;19.43;;;19.40;88.10;;;;;;5053371;28;20431;-81
2021/07/17 07:26:56;;;;;;;21.73;19.13;;;19.60;86.70;;;;;;5053077;28;20466;-81
2021/07/17 07:29:23;;;;;;;21.40;17.27;;;19.80;85.20;;;;;;5042685;28;20465;-82
2021/07/17 07:31:50;;;;;;;20.60;17.00;;;20.00;83.50;;;;;;5046079;28;20493;-81
2021/07/17 07:34:17;;;;;;;20.30;17.07;;;20.00;82.30;;;;;;5060138;28;20488;-81
2021/07/17 07:36:44;;;;;;;19.67;16.40;;;20.10;81.20;;;;;;5051670;28;20453;-81
2021/07/17 07:39:12;;;;;;;22.17;18.10;;;20.20;81.10;;;;;;5061261;28;20457;-80
2021/07/17 07:41:39;;;;;;;23.13;18.50;;;20.40;80.10;;;;;;5059968;28;20845;-80
2021/07/17 07:44:06;;;;;;;20.43;17.30;;;20.30;80.30;;;;;;5059788;28;20989;-82
2021/07/17 07:46:34;;;;;;;23.90;16.57;;;20.50;78.20;;;;;;5047375;28;20428;-82
2021/07/17 07:49:02;;;;;;;22.93;16.97;;;20.60;77.30;;;;;;5040216;28;20488;-82
2021/07/17 07:51:29;;;;;;;20.60;17.83;;;20.80;77.50;;;;;;5052547;28;20549;-83
2021/07/17 07:53:56;;;;;;;25.30;17.70;;;21.00;74.90;;;;;;5060092;28;20499;-80
2021/07/17 07:56:24;;;;;;;20.97;16.30;;;21.00;75.30;;;;;;5050914;28;20525;-81
2021/07/17 07:58:51;;;;;;;23.53;16.50;;;21.10;73.50;;;;;;5045295;28;20481;-80
2021/07/17 08:01:18;;;;;;;24.33;16.90;;;21.10;72.90;;;;;;5063223;28;20534;-81
2021/07/17 08:03:45;;;;;;;19.30;17.07;;;21.00;73.20;;;;;;5075240;28;20448;-83
2021/07/17 08:06:12;;;;;;;19.83;17.73;;;21.00;73.40;;;;;;5068702;28;20462;-82
2021/07/17 08:08:39;;;;;;;18.87;16.83;;;20.90;74.00;;;;;;5054920;28;20483;-80
2021/07/17 08:11:06;;;;;;;18.13;16.27;;;20.90;74.00;;;;;;5071926;28;20449;-79
2021/07/17 08:13:35;;;;;;;17.37;15.67;;;21.10;74.00;;;;;;5074701;28;20511;-80
2021/07/17 08:16:02;;;;;;;21.13;17.50;;;21.20;72.40;;;;;;5074041;28;21171;-81
2021/07/17 08:18:30;;;;;;;24.07;16.73;;;21.40;71.00;;;;;;5061404;28;20428;-79
2021/07/17 08:20:57;;;;;;;19.20;16.90;;;21.50;70.60;;;;;;5026617;28;20454;-82
2021/07/17 08:23:25;;;;;;;16.47;14.63;;;21.70;69.30;;;;;;5028799;28;20480;-81
2021/07/17 08:25:52;;;;;;;17.90;15.97;;;21.70;69.30;;;;;;5048733;28;20456;-81
2021/07/17 08:28:19;;;;;;;19.13;16.00;;;21.50;69.30;;;;;;5064495;28;20452;-80
2021/07/17 08:30:47;;;;;;;16.53;14.87;;;21.60;69.30;;;;;;5054601;28;20457;-79
2021/07/17 08:33:14;;;;;;;20.53;16.00;;;21.80;68.40;;;;;;5053065;28;20517;-80
2021/07/17 08:35:41;;;;;;;22.47;15.60;;;21.80;68.10;;;;;;5065808;28;20517;-81
2021/07/17 08:38:08;;;;;;;17.23;15.20;;;21.80;68.60;;;;;;5067694;28;20481;-81
2021/07/17 08:40:35;;;;;;;19.27;15.97;;;21.90;67.60;;;;;;5071201;28;20463;-82
2021/07/17 08:43:02;;;;;;;18.17;15.90;;;21.90;67.50;;;;;;5073279;28;20515;-81
2021/07/17 08:45:29;;;;;;;18.30;16.00;;;21.40;69.70;;;;;;5064099;28;20477;-81
2021/07/17 08:47:58;;;;;;;19.00;15.93;;;21.20;72.20;;;;;;5068598;28;20955;-82
2021/07/17 08:50:27;;;;;;;16.10;14.40;;;21.30;71.10;;;;;;5060075;28;20466;-83
2021/07/17 08:52:55;;;;;;;21.73;14.47;;;21.40;70.20;;;;;;5041981;28;20509;-81
2021/07/17 08:55:25;;;;;;;17.57;14.33;;;21.60;69.30;;;;;;5050134;28;20525;-82
2021/07/17 08:57:53;;;;;;;16.47;14.40;;;21.80;68.10;;;;;;5044050;28;20466;-80
2021/07/17 09:00:23;;;;;;;19.77;15.23;;;21.90;68.30;;;;;;5050062;28;20437;-80
2021/07/17 09:02:53;;;;;;;17.10;15.37;;;22.00;67.40;;;;;;5044333;28;20482;-79
2021/07/17 09:05:25;;;;;;;18.53;14.13;;;22.20;65.10;;;;;;5056258;28;20438;-79
2021/07/17 09:07:52;;;;;;;19.80;14.83;;;22.10;65.60;;;;;;5053202;28;20466;-78
2021/07/17 09:10:28;;;;;;;17.10;14.20;;;22.50;63.00;;;;;;5049072;28;20449;-81
2021/07/17 09:13:10;;;;;;;14.80;13.20;;;22.60;63.10;;;;;;5040966;28;20485;-79
2021/07/17 09:15:38;;;;;;;15.50;13.80;;;22.40;63.70;;;;;;5040451;28;20489;-80
2021/07/17 09:18:06;;;;;;;18.37;15.23;;;22.10;64.80;;;;;;5040209;28;20458;-79
2021/07/17 09:20:34;;;;;;;17.13;15.47;;;22.00;65.80;;;;;;5049294;28;20449;-80
2021/07/17 09:23:03;;;;;;;17.60;15.60;;;21.70;67.70;;;;;;5047612;28;20468;-80
2021/07/17 09:25:36;;;;;;;18.03;15.67;;;21.30;69.20;;;;;;5049473;28;20464;-81
2021/07/17 09:28:16;;;;;;;20.10;16.00;;;20.90;72.60;;;;;;5041743;28;20536;-80
2021/07/17 09:30:44;;;;;;;22.83;15.90;;;21.10;72.20;;;;;;5039547;28;20465;-79
2021/07/17 09:33:11;;;;;;;19.80;16.57;;;21.20;71.10;;;;;;5037471;28;20580;-80
2021/07/17 09:35:44;;;;;;;19.33;16.00;;;21.10;70.80;;;;;;5038353;28;20452;-77
2021/07/17 09:38:12;;;;;;;22.73;15.17;;;21.20;70.40;;;;;;5037004;28;20526;-78
2021/07/17 09:40:47;;;;;;;16.90;14.63;;;21.20;70.50;;;;;;5033256;28;20453;-79
2021/07/17 09:43:27;;;;;;;17.00;15.10;;;21.20;71.40;;;;;;5033397;28;20556;-79
2021/07/17 09:45:54;;;;;;;20.00;15.53;;;21.40;71.70;;;;;;5033749;28;20515;-77
2021/07/17 09:48:29;;;;;;;17.40;15.50;;;21.60;69.30;;;;;;5044156;28;20477;-81
2021/07/17 09:50:59;;;;;;;15.33;13.83;;;21.70;69.30;;;;;;5045874;28;20457;-78
2021/07/17 09:53:41;;;;;;;19.97;15.40;;;22.00;67.10;;;;;;5040926;28;20532;-80
2021/07/17 09:56:10;;;;;;;16.77;14.87;;;22.10;65.60;;;;;;5041160;28;20458;-80
2021/07/17 09:58:38;;;;;;;17.73;14.50;;;22.00;66.10;;;;;;5040089;28;20447;-79
2021/07/17 10:01:30;;;;;;;18.63;15.50;;;22.10;66.30;;;;;;5039500;28;20446;-79
2021/07/17 10:04:02;;;;;;;16.60;13.60;;;22.10;65.40;;;;;;5038650;28;20486;-80
2021/07/17 10:06:42;;;;;;;15.83;14.13;;;22.10;65.10;;;;;;5044290;28;20461;-80
2021/07/17 10:09:24;;;;;;;14.47;13.07;;;22.00;64.70;;;;;;5042954;28;20463;-79
2021/07/17 10:11:58;;;;;;;14.00;12.60;;;22.20;64.30;;;;;;5043511;28;20482;-80
2021/07/17 10:14:27;;;;;;;16.17;14.47;;;22.30;63.40;;;;;;5040981;28;20539;-79
2021/07/17 10:16:58;;;;;;;17.20;13.40;;;22.30;63.60;;;;;;5041888;28;20984;-80
2021/07/17 10:19:26;;;;;;;14.07;12.20;;;22.30;63.70;;;;;;5043629;28;20474;-81
2021/07/17 10:21:55;;;;;;;14.90;13.50;;;22.40;63.50;;;;;;5038775;28;20910;-78
2021/07/17 10:24:23;;;;;;;15.23;13.33;;;22.50;62.90;;;;;;5033476;28;20505;-79
2021/07/17 10:26:51;;;;;;;15.23;13.70;;;22.30;64.20;;;;;;5033947;28;20523;-80
2021/07/17 10:29:18;;;;;;;15.80;14.20;;;22.00;65.00;;;;;;5034396;28;20462;-78
2021/07/17 10:31:47;;;;;;;17.87;14.20;;;22.10;65.00;;;;;;5038006;28;20479;-80
2021/07/17 10:34:14;;;;;;;15.20;13.60;;;22.20;64.50;;;;;;5035093;28;21083;-79
2021/07/17 10:36:47;;;;;;;14.33;12.77;;;22.30;64.20;;;;;;5037468;28;20466;-80
2021/07/17 10:39:17;;;;;;;13.60;12.33;;;22.40;63.50;;;;;;5040846;28;20458;-81
2021/07/17 10:41:45;;;;;;;15.13;13.53;;;22.60;63.00;;;;;;5052845;28;20496;-79
2021/07/17 10:44:13;;;;;;;13.37;11.77;;;22.60;62.20;;;;;;5048973;28;20861;-79
2021/07/17 10:46:42;;;;;;;17.10;13.00;;;23.00;61.30;;;;;;5049497;28;20463;-79
2021/07/17 10:49:11;;;;;;;14.50;12.93;;;23.10;60.60;;;;;;5052131;28;20462;-79
2021/07/17 10:51:39;;;;;;;14.83;13.23;;;22.80;61.10;;;;;;5055824;28;20467;-79
2021/07/17 10:54:08;;;;;;;14.03;12.63;;;22.40;61.70;;;;;;5052492;28;20480;-79
2021/07/17 10:56:42;;;;;;;14.90;12.60;;;22.70;61.00;;;;;;5046362;28;20893;-79
2021/07/17 10:59:41;;;;;;;13.97;12.57;;;23.00;61.30;;;;;;5049728;28;20452;-78
2021/07/17 11:02:10;;;;;;;15.30;12.00;;;23.10;59.40;;;;;;5044153;28;21052;-79
2021/07/17 11:04:40;;;;;;;12.27;10.90;;;23.10;59.60;;;;;;5036223;28;20649;-79
2021/07/17 11:07:42;;;;;;;15.40;11.90;;;23.10;60.00;;;;;;5037567;28;20460;-78
2021/07/17 11:10:14;;;;;;;13.33;11.93;;;23.10;59.60;;;;;;5036261;28;20797;-78
2021/07/17 11:13:06;;;;;;;13.63;12.13;;;22.70;61.00;;;;;;5035906;28;20517;-78
2021/07/17 11:15:42;;;;;;;15.03;11.60;;;22.10;63.60;;;;;;5032318;28;20493;-78
2021/07/17 11:18:28;;;;;;;14.60;12.60;;;22.40;63.00;;;;;;5036852;28;20519;-79
2021/07/17 11:21:01;;;;;;;15.10;11.93;;;22.50;61.70;;;;;;5036929;28;20460;-79
2021/07/17 11:23:45;;;;;;;14.03;12.20;;;22.60;60.90;;;;;;5037608;28;20865;-79
2021/07/17 11:26:21;;;;;;;16.13;12.00;;;22.40;61.20;;;;;;5038294;28;20481;-79
2021/07/17 11:29:05;;;;;;;13.83;12.37;;;22.30;62.20;;;;;;5043282;28;20544;-78
2021/07/17 11:31:50;;;;;;;16.50;11.77;;;22.50;61.20;;;;;;5038687;28;20550;-78
2021/07/17 11:34:49;;;;;;;13.43;11.57;;;22.70;61.00;;;;;;5037724;28;20517;-78
2021/07/17 11:37:19;;;;;;;13.63;10.87;;;23.40;58.80;;;;;;5040043;28;20851;-78
2021/07/17 11:39:49;;;;;;;12.80;11.53;;;24.30;55.70;;;;;;5037617;28;20511;-80
2021/07/17 11:42:18;;;;;;;12.70;10.77;;;24.60;53.50;;;;;;5037185;28;20546;-79
2021/07/17 11:44:48;;;;;;;12.10;10.70;;;24.50;53.10;;;;;;5037448;28;20445;-78
2021/07/17 11:47:17;;;;;;;12.47;10.60;;;24.80;52.60;;;;;;5038713;28;20591;-79
2021/07/17 11:49:46;;;;;;;15.57;11.10;;;25.10;51.50;;;;;;5039805;28;21027;-77
2021/07/17 11:52:16;;;;;;;12.90;10.33;;;25.10;50.90;;;;;;5045849;28;20994;-78
2021/07/17 11:54:45;;;;;;;11.63;10.53;;;25.00;52.10;;;;;;5038860;28;20452;-78
2021/07/17 11:57:23;;;;;;;12.10;10.27;;;24.60;53.20;;;;;;5037770;28;20493;-77
2021/07/17 12:00:01;;;;;;;12.27;10.97;;;24.30;52.90;;;;;;5036036;28;20495;-79
2021/07/17 12:02:33;;;;;;;12.23;9.87;;;24.40;53.00;;;;;;5064860;22;20527;-77
2021/07/17 12:05:04;;;;;;;13.00;10.43;;;24.00;54.50;;;;;;5058892;28;21073;-78
2021/07/17 12:07:33;;;;;;;16.00;11.47;;;24.20;52.80;;;;;;5065407;28;20451;-77
2021/07/17 12:10:01;;;;;;;12.80;11.50;;;24.30;52.90;;;;;;5075710;28;20447;-77
2021/07/17 12:12:31;;;;;;;13.97;10.97;;;24.20;52.80;;;;;;5075861;28;20453;-78
2021/07/17 12:15:13;;;;;;;11.53;10.33;;;24.20;52.80;;;;;;5077983;28;20951;-77
2021/07/17 12:17:42;;;;;;;14.90;10.63;;;24.60;53.20;;;;;;5078536;28;20442;-77
2021/07/17 12:20:15;;;;;;;11.43;10.33;;;25.10;50.80;;;;;;5077332;28;20407;-78
2021/07/17 12:22:58;;;;;;;12.03;10.20;;;25.60;49.10;;;;;;5075693;28;20465;-79
2021/07/17 12:25:27;;;;;;;11.63;10.40;;;25.60;49.60;;;;;;5065045;28;20508;-78
2021/07/17 12:28:06;;;;;;;11.67;10.40;;;25.60;48.40;;;;;;5064710;28;20467;-78
2021/07/17 12:30:37;;;;;;;11.27;10.27;;;25.50;48.90;;;;;;5061832;28;20488;-78
2021/07/17 12:33:14;;;;;;;11.07;10.03;;;25.40;49.30;;;;;;5062297;28;20448;-78
2021/07/17 12:35:42;;;;;;;12.20;10.10;;;25.40;48.90;;;;;;5063987;28;20501;-78
2021/07/17 12:38:21;;;;;;;14.13;10.10;;;25.40;48.80;;;;;;5073513;28;21066;-79